sensor_id;sensor_type;location;lat;lon;timestamp;pressure;altitude;pressure_sealevel;temperature;humidity
20105;BME280;10212;42.714;23.310;2023-02-02T00:08:03;95243.91;;;2.93;60.85
20105;BME280;10212;42.714;23.310;2023-02-02T00:18:04;95239.97;;;3.07;59.42
20105;BME280;10212;42.714;23.310;2023-02-02T00:28:04;95249.66;;;3.13;59.44
20105;BME280;10212;42.714;23.310;2023-02-02T00:38:04;95262.69;;;3.11;58.98
20105;BME280;10212;42.714;23.310;2023-02-02T00:48:05;95264.81;;;2.89;61.10
20105;BME280;10212;42.714;23.310;2023-02-02T00:58:05;95253.06;;;2.69;61.78
20105;BME280;10212;42.714;23.310;2023-02-02T01:08:06;95239.53;;;2.67;62.79
20105;BME280;10212;42.714;23.310;2023-02-02T01:18:06;95227.97;;;2.71;64.21
20105;BME280;10212;42.714;23.310;2023-02-02T01:28:07;95231.03;;;2.11;67.81
20105;BME280;10212;42.714;23.310;2023-02-02T01:38:07;95238.22;;;1.61;70.73
20105;BME280;10212;42.714;23.310;2023-02-02T01:48:08;95220.72;;;1.47;71.71
20105;BME280;10212;42.714;23.310;2023-02-02T01:58:10;95210.66;;;1.15;74.17
20105;BME280;10212;42.714;23.310;2023-02-02T02:19:00;95207.94;;;0.79;79.71
20105;BME280;10212;42.714;23.310;2023-02-02T02:50:26;95213.00;;;0.51;80.29
20105;BME280;10212;42.714;23.310;2023-02-02T03:10:29;95197.69;;;0.79;78.00
20105;BME280;10212;42.714;23.310;2023-02-02T03:20:30;95197.00;;;0.77;77.77
20105;BME280;10212;42.714;23.310;2023-02-02T03:41:28;95213.28;;;0.47;78.84
20105;BME280;10212;42.714;23.310;2023-02-02T03:51:29;95214.09;;;0.38;79.12
20105;BME280;10212;42.714;23.310;2023-02-02T04:01:29;95217.44;;;0.29;79.59
20105;BME280;10212;42.714;23.310;2023-02-02T04:11:30;95228.78;;;0.16;80.12
20105;BME280;10212;42.714;23.310;2023-02-02T04:21:31;95240.28;;;0.12;80.03
20105;BME280;10212;42.714;23.310;2023-02-02T04:31:32;95225.41;;;0.06;80.37
20105;BME280;10212;42.714;23.310;2023-02-02T04:41:32;95219.75;;;-0.08;81.14
20105;BME280;10212;42.714;23.310;2023-02-02T04:51:34;95236.53;;;-0.35;82.56
20105;BME280;10212;42.714;23.310;2023-02-02T05:01:34;95239.22;;;-0.46;83.05
20105;BME280;10212;42.714;23.310;2023-02-02T05:11:34;95237.97;;;-0.62;83.48
20105;BME280;10212;42.714;23.310;2023-02-02T05:21:35;95229.06;;;-0.58;82.86
20105;BME280;10212;42.714;23.310;2023-02-02T05:31:35;95246.19;;;-0.58;82.41
20105;BME280;10212;42.714;23.310;2023-02-02T05:41:36;95244.28;;;-0.66;82.53
20105;BME280;10212;42.714;23.310;2023-02-02T05:51:48;95245.94;;;-0.55;81.37
20105;BME280;10212;42.714;23.310;2023-02-02T06:01:49;95257.22;;;-0.58;81.99
20105;BME280;10212;42.714;23.310;2023-02-02T06:11:49;95262.19;;;-0.66;82.48
20105;BME280;10212;42.714;23.310;2023-02-02T06:21:50;95264.06;;;-0.68;82.37
20105;BME280;10212;42.714;23.310;2023-02-02T06:31:50;95279.97;;;-0.75;82.73
20105;BME280;10212;42.714;23.310;2023-02-02T06:41:50;95291.31;;;-0.67;82.22
20105;BME280;10212;42.714;23.310;2023-02-02T06:51:51;95284.81;;;-0.40;80.13
20105;BME280;10212;42.714;23.310;2023-02-02T07:01:51;95289.66;;;-0.06;79.58
20105;BME280;10212;42.714;23.310;2023-02-02T07:11:52;95292.94;;;0.36;76.99
20105;BME280;10212;42.714;23.310;2023-02-02T07:21:52;95292.41;;;0.52;77.50
20105;BME280;10212;42.714;23.310;2023-02-02T07:31:52;95308.19;;;0.67;77.60
20105;BME280;10212;42.714;23.310;2023-02-02T07:41:53;95303.91;;;0.58;78.78
20105;BME280;10212;42.714;23.310;2023-02-02T07:51:53;95282.84;;;1.22;75.51
20105;BME280;10212;42.714;23.310;2023-02-02T08:01:54;95260.56;;;1.51;74.23
20105;BME280;10212;42.714;23.310;2023-02-02T08:11:54;95264.38;;;2.76;69.52
20105;BME280;10212;42.714;23.310;2023-02-02T08:21:56;95248.94;;;3.29;65.25
20105;BME280;10212;42.714;23.310;2023-02-02T08:31:57;95236.31;;;3.18;65.89
20105;BME280;10212;42.714;23.310;2023-02-02T08:41:59;95235.97;;;3.91;63.06
20105;BME280;10212;42.714;23.310;2023-02-02T08:51:59;95222.66;;;4.45;61.64
20105;BME280;10212;42.714;23.310;2023-02-02T09:02:00;95219.91;;;4.39;61.92
20105;BME280;10212;42.714;23.310;2023-02-02T09:12:00;95205.00;;;5.07;56.30
20105;BME280;10212;42.714;23.310;2023-02-02T09:22:00;95197.41;;;5.54;55.21
20105;BME280;10212;42.714;23.310;2023-02-02T09:32:01;95186.03;;;5.72;55.10
20105;BME280;10212;42.714;23.310;2023-02-02T10:02:47;95167.31;;;5.94;54.39
20105;BME280;10212;42.714;23.310;2023-02-02T10:12:58;95136.91;;;6.58;52.67
20105;BME280;10212;42.714;23.310;2023-02-02T10:23:08;95122.75;;;7.73;48.78
20105;BME280;10212;42.714;23.310;2023-02-02T10:33:24;95105.66;;;8.01;48.13
20105;BME280;10212;42.714;23.310;2023-02-02T10:54:01;95062.75;;;8.05;47.50
20105;BME280;10212;42.714;23.310;2023-02-02T11:04:08;95055.09;;;7.96;47.66
20105;BME280;10212;42.714;23.310;2023-02-02T11:14:58;95052.66;;;8.17;47.71
20105;BME280;10212;42.714;23.310;2023-02-02T11:25:29;95026.50;;;8.18;46.98
20105;BME280;10212;42.714;23.310;2023-02-02T11:35:31;95005.09;;;8.16;46.42
20105;BME280;10212;42.714;23.310;2023-02-02T11:55:34;94992.63;;;9.25;44.51
20105;BME280;10212;42.714;23.310;2023-02-02T12:05:35;94973.38;;;9.12;44.18
20105;BME280;10212;42.714;23.310;2023-02-02T12:36:22;94985.69;;;8.12;42.73
20105;BME280;10212;42.714;23.310;2023-02-02T12:57:24;94966.25;;;7.72;44.40
20105;BME280;10212;42.714;23.310;2023-02-02T13:17:35;94982.38;;;7.46;44.61
20105;BME280;10212;42.714;23.310;2023-02-02T13:27:38;94966.25;;;7.07;46.59
20105;BME280;10212;42.714;23.310;2023-02-02T13:37:52;94968.41;;;7.03;44.27
20105;BME280;10212;42.714;23.310;2023-02-02T13:48:03;94968.28;;;6.74;46.57
20105;BME280;10212;42.714;23.310;2023-02-02T14:08:21;94985.19;;;6.70;52.73
20105;BME280;10212;42.714;23.310;2023-02-02T14:28:49;95023.03;;;6.11;60.19
20105;BME280;10212;42.714;23.310;2023-02-02T14:38:58;95044.41;;;3.89;77.81
20105;BME280;10212;42.714;23.310;2023-02-02T14:59:03;95154.97;;;1.90;98.16
20105;BME280;10212;42.714;23.310;2023-02-02T15:19:39;95218.81;;;1.11;99.18
20105;BME280;10212;42.714;23.310;2023-02-02T15:29:43;95223.84;;;0.92;100.00
20105;BME280;10212;42.714;23.310;2023-02-02T15:39:47;95225.63;;;0.82;100.00
20105;BME280;10212;42.714;23.310;2023-02-02T15:49:50;95250.94;;;0.47;100.00
20105;BME280;10212;42.714;23.310;2023-02-02T15:59:51;95267.97;;;0.58;100.00
20105;BME280;10212;42.714;23.310;2023-02-02T16:09:52;95256.34;;;0.74;100.00
20105;BME280;10212;42.714;23.310;2023-02-02T16:20:00;95305.91;;;0.74;100.00
20105;BME280;10212;42.714;23.310;2023-02-02T16:30:07;95284.16;;;0.78;100.00
20105;BME280;10212;42.714;23.310;2023-02-02T16:40:27;95304.81;;;0.77;100.00
20105;BME280;10212;42.714;23.310;2023-02-02T16:50:29;95327.41;;;0.83;100.00
20105;BME280;10212;42.714;23.310;2023-02-02T17:00:30;95322.38;;;0.91;100.00
20105;BME280;10212;42.714;23.310;2023-02-02T17:10:37;95326.16;;;0.87;99.17
20105;BME280;10212;42.714;23.310;2023-02-02T17:20:39;95347.78;;;0.75;98.77
20105;BME280;10212;42.714;23.310;2023-02-02T17:30:44;95308.47;;;0.84;97.80
20105;BME280;10212;42.714;23.310;2023-02-02T17:40:48;95327.41;;;0.83;95.97
20105;BME280;10212;42.714;23.310;2023-02-02T17:50:50;95333.72;;;0.89;93.76
20105;BME280;10212;42.714;23.310;2023-02-02T18:00:52;95351.03;;;0.96;90.72
20105;BME280;10212;42.714;23.310;2023-02-02T18:10:54;95355.50;;;1.04;89.55
20105;BME280;10212;42.714;23.310;2023-02-02T18:20:54;95348.72;;;1.13;87.21
20105;BME280;10212;42.714;23.310;2023-02-02T18:30:55;95362.38;;;1.14;87.75
20105;BME280;10212;42.714;23.310;2023-02-02T18:40:55;95359.66;;;1.15;87.69
20105;BME280;10212;42.714;23.310;2023-02-02T18:50:57;95361.59;;;1.13;86.77
20105;BME280;10212;42.714;23.310;2023-02-02T19:00:58;95367.50;;;1.14;86.62
20105;BME280;10212;42.714;23.310;2023-02-02T19:10:59;95369.81;;;1.07;85.85
20105;BME280;10212;42.714;23.310;2023-02-02T19:21:02;95388.63;;;1.07;85.07
20105;BME280;10212;42.714;23.310;2023-02-02T19:31:07;95392.50;;;1.12;83.65
20105;BME280;10212;42.714;23.310;2023-02-02T19:41:19;95395.34;;;1.08;83.45
20105;BME280;10212;42.714;23.310;2023-02-02T19:51:25;95399.56;;;1.10;82.84
20105;BME280;10212;42.714;23.310;2023-02-02T20:01:31;95403.47;;;1.04;83.47
20105;BME280;10212;42.714;23.310;2023-02-02T20:11:37;95409.94;;;1.08;81.76
20105;BME280;10212;42.714;23.310;2023-02-02T20:21:42;95405.34;;;1.12;81.95
20105;BME280;10212;42.714;23.310;2023-02-02T20:31:44;95399.00;;;1.26;80.68
20105;BME280;10212;42.714;23.310;2023-02-02T20:41:45;95390.22;;;1.18;80.53
20105;BME280;10212;42.714;23.310;2023-02-02T20:51:47;95399.00;;;1.16;81.39
20105;BME280;10212;42.714;23.310;2023-02-02T21:01:47;95378.34;;;1.07;81.54
20105;BME280;10212;42.714;23.310;2023-02-02T21:11:49;95366.16;;;0.80;83.51
20105;BME280;10212;42.714;23.310;2023-02-02T21:21:49;95388.72;;;0.76;84.25
20105;BME280;10212;42.714;23.310;2023-02-02T21:31:50;95373.63;;;0.83;84.07
20105;BME280;10212;42.714;23.310;2023-02-02T21:42:17;95369.53;;;0.90;82.80
20105;BME280;10212;42.714;23.310;2023-02-02T21:52:18;95375.34;;;0.92;82.76
20105;BME280;10212;42.714;23.310;2023-02-02T22:02:36;95395.09;;;1.12;80.95
20105;BME280;10212;42.714;23.310;2023-02-02T22:12:40;95387.53;;;1.20;81.03
20105;BME280;10212;42.714;23.310;2023-02-02T22:22:44;95400.88;;;1.34;79.69
20105;BME280;10212;42.714;23.310;2023-02-02T22:32:44;95406.69;;;1.46;79.46
20105;BME280;10212;42.714;23.310;2023-02-02T22:42:45;95405.88;;;1.55;78.43
20105;BME280;10212;42.714;23.310;2023-02-02T22:52:45;95390.19;;;1.48;78.76
20105;BME280;10212;42.714;23.310;2023-02-02T23:02:46;95369.09;;;1.44;78.98
20105;BME280;10212;42.714;23.310;2023-02-02T23:12:47;95384.91;;;1.50;79.22
20105;BME280;10212;42.714;23.310;2023-02-02T23:22:48;95372.03;;;1.60;77.89
20105;BME280;10212;42.714;23.310;2023-02-02T23:32:49;95372.03;;;1.60;77.83
20105;BME280;10212;42.714;23.310;2023-02-02T23:42:49;95377.69;;;1.63;76.65
20105;BME280;10212;42.714;23.310;2023-02-02T23:52:50;95392.34;;;1.53;78.23
